Time;durP1;ratioP1;P1;durP2;ratioP2;P2;SDS_P1;SDS_P2;PMS_P1;PMS_P2;Temp;Humidity;BMP_temperature;BMP_pressure;BME280_temperature;BME280_humidity;BME280_pressure;Samples;Min_cycle;Max_cycle;Signal;HPM_P1;HPM_P2
2021/12/07 00:00:40;;;;;;;;;;;;;;;-1.57;100.00;99793.69;6701630;26;34923;-81
2021/12/07 00:03:47;;;;;;;;;;;;;;;-1.56;100.00;99797.13;6701369;26;35397;-81
2021/12/07 00:06:56;;;;;;;;;;;;;;;-1.49;100.00;99789.88;6700971;26;35134;-81
2021/12/07 00:10:03;;;;;;;;;;;;;;;-1.35;100.00;99782.25;6700150;26;34879;-81
2021/12/07 00:13:06;;;;;;;;;;;;;;;-1.56;100.00;99792.78;6700158;26;33705;-81
2021/12/07 00:16:09;;;;;;;;;;;;;;;-1.59;100.00;99790.34;6700951;26;34939;-81
2021/12/07 00:19:12;;;;;;;;;;;;;;;-1.41;100.00;99788.59;6700651;26;34594;-81
2021/12/07 00:22:15;;;;;;;;;;;;;;;-1.35;100.00;99791.78;6700449;26;34909;-81
2021/12/07 00:25:17;;;;;;;;;;;;;;;-1.29;100.00;99794.91;6700475;26;34266;-80
2021/12/07 00:28:22;;;;;;;;;;;;;;;-1.29;100.00;99801.84;6701577;26;35247;-80
2021/12/07 00:31:31;;;;;;;;;;;;;;;-1.19;100.00;99807.44;6701416;26;35370;-81
2021/12/07 00:37:38;;;;;;;;;;;;;;;-1.22;100.00;99810.16;6702031;26;35023;-80
2021/12/07 00:40:41;;;;;;;;;;;;;;;-1.15;100.00;99803.75;6700010;26;35163;-81
2021/12/07 00:43:44;;;;;;;;;;;;;;;-1.19;100.00;99804.84;6704375;26;35267;-81
2021/12/07 00:46:49;;;;;;;;;;;;;;;-1.25;100.00;99796.44;6708149;26;35956;-80
2021/12/07 00:49:52;;;;;;;;;;;;;;;-1.23;100.00;99790.31;6701969;26;34645;-81
2021/12/07 00:52:55;;;;;;;;;;;;;;;-1.21;100.00;99788.50;6704367;26;34382;-81
2021/12/07 00:55:59;;;;;;;;;;;;;;;-1.19;100.00;99786.66;6702072;26;35259;-81
2021/12/07 00:59:04;;;;;;;;;;;;;;;-1.16;100.00;99799.47;6700990;26;34819;-81
2021/12/07 01:02:06;;;;;;;;;;;;;;;-1.16;100.00;99795.13;6700858;26;35082;-81
2021/12/07 01:05:17;;;;;;;;;;;;;;;-1.18;100.00;99796.13;6701826;26;34508;-81
2021/12/07 01:08:50;;;;;;;;;;;;;;;-1.15;100.00;99793.34;6702144;26;34630;-81
2021/12/07 01:25:09;;;;;;;;;;;;;;;-1.16;100.00;99779.56;6702097;26;34379;-81
2021/12/07 01:28:28;;;;;;;;;;;;;;;-1.26;100.00;99784.38;6700532;26;34360;-81
2021/12/07 02:00:30;;;;;;;;;;;;;;;-1.13;100.00;99775.94;6702473;26;34434;-81
2021/12/07 02:03:40;;;;;;;;;;;;;;;-1.23;100.00;99782.53;6701830;26;35323;-81
2021/12/07 02:06:43;;;;;;;;;;;;;;;-1.09;100.00;99782.66;6700346;26;35630;-81
2021/12/07 02:09:55;;;;;;;;;;;;;;;-1.07;100.00;99788.63;6701243;26;34706;-81
2021/12/07 02:13:19;;;;;;;;;;;;;;;-1.05;100.00;99783.34;6700450;26;35112;-82
2021/12/07 02:16:21;;;;;;;;;;;;;;;-1.00;100.00;99784.78;6700640;26;33098;-82
2021/12/07 02:19:26;;;;;;;;;;;;;;;-0.97;100.00;99783.78;6704397;26;35046;-82
2021/12/07 02:22:31;;;;;;;;;;;;;;;-1.15;100.00;99773.44;6709056;26;35875;-82
2021/12/07 02:25:34;;;;;;;;;;;;;;;-1.21;100.00;99772.91;6701588;26;34595;-82
2021/12/07 02:28:39;;;;;;;;;;;;;;;-1.27;100.00;99787.87;6700631;26;34670;-82
2021/12/07 02:31:42;;;;;;;;;;;;;;;-1.15;100.00;99772.59;6699899;26;34279;-82
2021/12/07 02:34:54;;;;;;;;;;;;;;;-1.14;100.00;99769.06;6700687;26;34236;-82
2021/12/07 02:37:57;;;;;;;;;;;;;;;-1.30;100.00;99764.69;6702088;26;34915;-82
2021/12/07 02:41:00;;;;;;;;;;;;;;;-1.28;100.00;99765.44;6701895;26;34504;-82
2021/12/07 02:44:06;;;;;;;;;;;;;;;-1.12;100.00;99759.47;6704744;26;35827;-82
2021/12/07 02:47:09;;;;;;;;;;;;;;;-1.16;100.00;99765.72;6700453;26;35338;-82
2021/12/07 02:50:15;;;;;;;;;;;;;;;-1.20;100.00;99764.22;6702216;26;34859;-82
2021/12/07 02:53:22;;;;;;;;;;;;;;;-1.05;100.00;99758.19;6700805;26;35119;-82
2021/12/07 02:56:25;;;;;;;;;;;;;;;-1.01;100.00;99759.72;6700228;26;35199;-82
2021/12/07 02:59:28;;;;;;;;;;;;;;;-1.02;100.00;99755.47;6703161;26;35018;-82
2021/12/07 03:02:36;;;;;;;;;;;;;;;-1.06;100.00;99751.34;6701122;26;34846;-82
2021/12/07 03:09:33;;;;;;;;;;;;;;;-1.15;100.00;99750.06;6700379;26;35054;-82
2021/12/07 03:28:59;;;;;;;;;;;;;;;-1.25;100.00;99747.09;6705124;26;35253;-83
2021/12/07 03:32:04;;;;;;;;;;;;;;;-1.19;100.00;99745.94;6703473;26;35740;-82
2021/12/07 03:35:07;;;;;;;;;;;;;;;-1.21;100.00;99749.56;6702985;26;34915;-81
2021/12/07 03:38:10;;;;;;;;;;;;;;;-1.21;100.00;99763.34;6701783;26;34460;-82
2021/12/07 03:41:16;;;;;;;;;;;;;;;-1.18;100.00;99752.00;6701435;26;34955;-82
2021/12/07 03:44:19;;;;;;;;;;;;;;;-1.22;100.00;99763.44;6700986;26;35554;-81
2021/12/07 03:47:27;;;;;;;;;;;;;;;-1.23;100.00;99751.38;6700739;26;34802;-81
2021/12/07 03:50:30;;;;;;;;;;;;;;;-1.33;100.00;99751.00;6700933;26;34491;-81
2021/12/07 03:53:33;;;;;;;;;;;;;;;-1.35;100.00;99752.88;6701239;26;34249;-82
2021/12/07 03:56:36;;;;;;;;;;;;;;;-1.22;100.00;99755.66;6709366;26;34286;-81
2021/12/07 03:59:43;;;;;;;;;;;;;;;-1.39;100.00;99754.75;6706192;26;36779;-82
2021/12/07 04:02:46;;;;;;;;;;;;;;;-1.37;100.00;99755.53;6701845;26;34788;-81
2021/12/07 04:05:55;;;;;;;;;;;;;;;-1.37;100.00;99755.53;6702557;26;34754;-82
2021/12/07 04:08:58;;;;;;;;;;;;;;;-1.21;100.00;99763.34;6703210;26;34863;-81
2021/12/07 04:12:00;;;;;;;;;;;;;;;-1.17;100.00;99754.50;6702360;26;35524;-82
2021/12/07 04:15:07;;;;;;;;;;;;;;;-1.19;100.00;99758.09;6702407;26;34555;-82
2021/12/07 04:18:10;;;;;;;;;;;;;;;-1.26;100.00;99755.81;6701382;26;35189;-81
2021/12/07 04:21:13;;;;;;;;;;;;;;;-1.33;100.00;99754.47;6701814;26;34962;-81
2021/12/07 04:24:16;;;;;;;;;;;;;;;-1.29;100.00;99758.56;6701900;26;35379;-80
2021/12/07 04:27:19;;;;;;;;;;;;;;;-1.25;100.00;99757.50;6703074;26;34533;-81
2021/12/07 04:30:26;;;;;;;;;;;;;;;-1.32;100.00;99756.13;6701627;26;34796;-81
2021/12/07 04:33:29;;;;;;;;;;;;;;;-1.33;100.00;99775.22;6703570;26;36204;-82
2021/12/07 04:36:33;;;;;;;;;;;;;;;-1.27;100.00;99769.69;6701480;26;34850;-81
2021/12/07 04:39:35;;;;;;;;;;;;;;;-1.26;100.00;99770.56;6701726;26;35188;-81
2021/12/07 04:42:41;;;;;;;;;;;;;;;-1.33;100.00;99779.56;6703065;26;35423;-81
2021/12/07 04:46:04;;;;;;;;;;;;;;;-1.29;100.00;99774.13;6701395;26;35837;-81
2021/12/07 04:59:00;;;;;;;;;;;;;;;-1.14;100.00;99780.31;6701959;26;34171;-83
2021/12/07 05:02:03;;;;;;;;;;;;;;;-1.14;100.00;99779.47;6701560;26;35342;-82
2021/12/07 05:05:10;;;;;;;;;;;;;;;-1.20;100.00;99790.16;6701960;26;34619;-81
2021/12/07 05:08:16;;;;;;;;;;;;;;;-1.15;100.00;99798.53;6702709;26;35507;-83
2021/12/07 05:11:31;;;;;;;;;;;;;;;-1.12;100.00;99795.81;6702372;26;35477;-82
2021/12/07 05:14:37;;;;;;;;;;;;;;;-1.12;100.00;99798.41;6704356;26;34194;-82
2021/12/07 05:18:01;;;;;;;;;;;;;;;-1.06;100.00;99803.25;6702966;26;34883;-82
2021/12/07 05:24:26;;;;;;;;;;;;;;;-1.11;100.00;99800.06;6701080;26;35815;-82
2021/12/07 05:40:50;;;;;;;;;;;;;;;-1.27;100.00;99800.03;6703118;26;34788;-81
2021/12/07 05:43:53;;;;;;;;;;;;;;;-1.31;100.00;99801.94;6701194;26;34788;-81
2021/12/07 05:46:55;;;;;;;;;;;;;;;-1.43;100.00;99800.78;6702062;26;34801;-81
2021/12/07 05:49:58;;;;;;;;;;;;;;;-1.29;100.00;99802.69;6699946;26;37309;-81
2021/12/07 05:53:01;;;;;;;;;;;;;;;-1.39;100.00;99796.28;6700645;26;34623;-82
2021/12/07 05:56:04;;;;;;;;;;;;;;;-1.41;100.00;99790.34;6702576;26;34475;-82
2021/12/07 05:59:06;;;;;;;;;;;;;;;-1.39;100.00;99785.91;6703525;26;34210;-82
2021/12/07 06:02:09;;;;;;;;;;;;;;;-1.31;100.00;99782.91;6700994;26;34964;-81
2021/12/07 06:05:12;;;;;;;;;;;;;;;-1.30;100.00;99785.47;6702054;26;34783;-82
2021/12/07 06:08:14;;;;;;;;;;;;;;;-1.44;100.00;99783.53;6700883;26;34053;-83
2021/12/07 06:11:18;;;;;;;;;;;;;;;-1.45;100.00;99787.03;6699261;26;35017;-82
2021/12/07 06:14:21;;;;;;;;;;;;;;;-1.44;100.00;99782.72;6700457;26;35901;-82
2021/12/07 06:17:24;;;;;;;;;;;;;;;-1.46;100.00;99787.13;6699719;26;35061;-82
2021/12/07 06:20:27;;;;;;;;;;;;;;;-1.40;100.00;99792.00;6700450;26;34881;-83
2021/12/07 06:23:45;;;;;;;;;;;;;;;-1.62;100.00;99793.06;6700457;26;34875;-82
2021/12/07 06:26:50;;;;;;;;;;;;;;;-1.69;100.00;99794.31;6701433;26;35387;-82
2021/12/07 06:29:54;;;;;;;;;;;;;;;-1.64;100.00;99792.34;6700420;26;34428;-83
2021/12/07 06:32:57;;;;;;;;;;;;;;;-1.58;100.00;99797.22;6701195;26;34768;-84
2021/12/07 06:36:01;;;;;;;;;;;;;;;-1.60;100.00;99783.47;6701290;26;35921;-83
2021/12/07 06:39:05;;;;;;;;;;;;;;;-1.57;100.00;99788.50;6701389;26;34205;-83
2021/12/07 06:42:08;;;;;;;;;;;;;;;-1.58;100.00;99786.84;6699904;26;34750;-83
2021/12/07 06:45:11;;;;;;;;;;;;;;;-1.59;100.00;99797.28;6701724;26;34071;-82
2021/12/07 06:48:13;;;;;;;;;;;;;;;-1.44;100.00;99787.91;6702043;26;35486;-82
2021/12/07 06:51:16;;;;;;;;;;;;;;;-1.45;100.00;99796.59;6700491;26;35363;-82
2021/12/07 06:54:19;;;;;;;;;;;;;;;-1.45;100.00;99796.59;6700398;26;34319;-82
2021/12/07 06:57:21;;;;;;;;;;;;;;;-1.41;100.00;99798.97;6700121;26;34888;-82
2021/12/07 07:00:24;;;;;;;;;;;;;;;-1.41;100.00;99803.31;6702089;26;34259;-82
2021/12/07 07:03:26;;;;;;;;;;;;;;;-1.40;100.00;99799.78;6700303;26;34251;-82
2021/12/07 07:06:29;;;;;;;;;;;;;;;-1.43;100.00;99810.34;6700523;26;34859;-82
2021/12/07 07:09:34;;;;;;;;;;;;;;;-1.45;100.00;99801.78;6700440;26;34877;-82
2021/12/07 07:12:37;;;;;;;;;;;;;;;-1.46;100.00;99802.69;6700337;26;34643;-82
2021/12/07 07:15:41;;;;;;;;;;;;;;;-1.36;100.00;99808.28;6700309;26;34469;-82
2021/12/07 07:18:43;;;;;;;;;;;;;;;-1.33;100.00;99806.38;6700311;26;35752;-82
2021/12/07 07:21:46;;;;;;;;;;;;;;;-1.23;100.00;99806.72;6698574;26;34354;-81
2021/12/07 07:24:51;;;;;;;;;;;;;;;-1.24;100.00;99810.25;6699516;26;35188;-82
2021/12/07 07:27:59;;;;;;;;;;;;;;;-1.18;100.00;99814.31;6698189;26;34470;-82
2021/12/07 07:31:03;;;;;;;;;;;;;;;-1.00;99.74;99818.53;6698525;26;34678;-82
2021/12/07 07:34:06;;;;;;;;;;;;;;;-1.13;100.00;99814.88;6699776;26;34477;-82
2021/12/07 07:37:08;;;;;;;;;;;;;;;-1.05;100.00;99822.28;6700432;26;34701;-82
2021/12/07 07:40:15;;;;;;;;;;;;;;;-0.99;98.92;99825.41;6700325;26;34756;-83
2021/12/07 07:43:19;;;;;;;;;;;;;;;-0.83;98.53;99816.81;6699725;26;34342;-82
2021/12/07 07:46:22;;;;;;;;;;;;;;;-0.90;98.46;99818.06;6699341;26;34401;-82
2021/12/07 07:49:24;;;;;;;;;;;;;;;-0.85;98.04;99821.28;6699974;26;34882;-82
2021/12/07 07:52:27;;;;;;;;;;;;;;;-0.78;99.06;99828.63;6700660;26;34579;-82
2021/12/07 07:55:29;;;;;;;;;;;;;;;-0.63;97.82;99827.00;6700069;26;35269;-82
2021/12/07 07:58:32;;;;;;;;;;;;;;;-0.55;97.07;99828.34;6700643;26;34662;-82
2021/12/07 08:01:35;;;;;;;;;;;;;;;-0.45;96.48;99826.94;6701301;26;34429;-82
2021/12/07 08:04:41;;;;;;;;;;;;;;;-0.28;95.70;99835.59;6701368;26;34289;-83
2021/12/07 08:07:47;;;;;;;;;;;;;;;-0.28;94.77;99833.00;6700635;26;34572;-82
2021/12/07 08:10:54;;;;;;;;;;;;;;;-0.28;95.43;99843.41;6702048;26;34878;-81
2021/12/07 08:13:57;;;;;;;;;;;;;;;-0.35;95.69;99841.13;6701453;26;34626;-81
2021/12/07 08:17:00;;;;;;;;;;;;;;;-0.36;95.37;99839.44;6700827;26;34817;-83
2021/12/07 08:20:03;;;;;;;;;;;;;;;-0.37;95.41;99847.31;6703888;26;34929;-82
2021/12/07 08:23:05;;;;;;;;;;;;;;;-0.35;95.30;99843.72;6701050;26;35436;-82
2021/12/07 08:26:09;;;;;;;;;;;;;;;-0.20;95.84;99849.03;6702607;26;35177;-82
2021/12/07 08:29:12;;;;;;;;;;;;;;;-0.08;93.15;99853.56;6701239;26;34795;-82
2021/12/07 08:32:14;;;;;;;;;;;;;;;-0.10;94.52;99854.53;6702292;26;35578;-82
2021/12/07 08:35:19;;;;;;;;;;;;;;;-0.09;93.80;99851.88;6700435;26;35566;-81
2021/12/07 08:38:21;;;;;;;;;;;;;;;-0.20;94.11;99859.41;6703074;26;34626;-81
2021/12/07 08:41:24;;;;;;;;;;;;;;;0.03;94.43;99858.16;6700251;26;34671;-81
2021/12/07 08:44:26;;;;;;;;;;;;;;;0.14;95.05;99857.56;6700558;26;34760;-81
2021/12/07 08:47:30;;;;;;;;;;;;;;;0.25;92.86;99855.22;6700453;26;35650;-81
2021/12/07 08:50:44;;;;;;;;;;;;;;;0.45;91.59;99846.25;6699964;26;34824;-81
2021/12/07 08:54:17;;;;;;;;;;;;;;;0.42;92.54;99845.59;6700944;26;35024;-82
2021/12/07 09:00:40;;;;;;;;;;;;;;;0.29;93.10;99835.88;6700644;26;35441;-82
2021/12/07 09:03:43;;;;;;;;;;;;;;;0.18;92.37;99834.81;6701469;26;34258;-82
2021/12/07 09:06:47;;;;;;;;;;;;;;;0.02;93.12;99829.62;6701135;26;35334;-82
2021/12/07 09:09:50;;;;;;;;;;;;;;;-0.03;94.00;99820.31;6700155;26;35451;-82
2021/12/07 09:12:56;;;;;;;;;;;;;;;-0.06;93.96;99824.84;6702209;26;34860;-81
2021/12/07 09:15:58;;;;;;;;;;;;;;;-0.12;93.90;99820.81;6700366;26;34665;-81
2021/12/07 09:19:01;;;;;;;;;;;;;;;-0.09;94.74;99825.87;6700543;26;34616;-81
2021/12/07 09:22:04;;;;;;;;;;;;;;;0.00;93.69;99821.94;6699549;26;35718;-81
2021/12/07 09:25:21;;;;;;;;;;;;;;;-0.03;94.23;99820.31;6699355;26;34475;-82
2021/12/07 09:28:23;;;;;;;;;;;;;;;-0.10;94.96;99824.19;6701198;26;34435;-82
2021/12/07 09:31:26;;;;;;;;;;;;;;;-0.13;95.08;99813.94;6700525;26;34758;-82
2021/12/07 09:34:29;;;;;;;;;;;;;;;0.15;93.82;99807.22;6700975;26;34788;-82
2021/12/07 09:37:32;;;;;;;;;;;;;;;0.25;93.55;99803.16;6702864;26;34947;-82
2021/12/07 09:40:34;;;;;;;;;;;;;;;0.36;92.67;99801.72;6708451;26;34461;-82
2021/12/07 09:43:41;;;;;;;;;;;;;;;0.39;92.36;99799.78;6710752;26;35033;-81
2021/12/07 09:46:43;;;;;;;;;;;;;;;0.37;93.14;99795.59;6708033;26;34816;-81
2021/12/07 09:49:46;;;;;;;;;;;;;;;0.41;93.13;99789.25;6708233;26;34565;-82
2021/12/07 09:52:49;;;;;;;;;;;;;;;0.39;93.71;99783.31;6707831;26;34455;-81
2021/12/07 09:55:52;;;;;;;;;;;;;;;0.56;91.84;99784.94;6707588;26;34727;-82
2021/12/07 09:58:59;;;;;;;;;;;;;;;0.72;90.12;99780.50;6707534;26;35002;-81
2021/12/07 10:02:06;;;;;;;;;;;;;;;0.73;91.16;99778.75;6705625;26;35352;-81
2021/12/07 10:05:10;;;;;;;;;;;;;;;0.92;89.49;99776.72;6701371;26;35348;-81
2021/12/07 10:08:13;;;;;;;;;;;;;;;0.92;90.12;99774.09;6701349;26;34786;-82
2021/12/07 10:11:16;;;;;;;;;;;;;;;1.03;90.37;99780.44;6701881;26;34596;-82
2021/12/07 10:14:22;;;;;;;;;;;;;;;1.16;88.39;99768.34;6704161;26;34971;-82
2021/12/07 10:17:25;;;;;;;;;;;;;;;1.15;89.03;99771.87;6705893;26;34791;-82
2021/12/07 10:20:41;;;;;;;;;;;;;;;1.17;88.30;99758.75;6702787;26;37196;-82
2021/12/07 10:23:51;;;;;;;;;;;;;;;1.01;89.17;99758.84;6706050;26;35643;-82
2021/12/07 10:26:54;;;;;;;;;;;;;;;1.05;90.31;99762.94;6701405;26;34341;-82
2021/12/07 10:29:57;;;;;;;;;;;;;;;1.05;88.75;99760.34;6700886;26;35209;-81
2021/12/07 10:33:02;;;;;;;;;;;;;;;1.05;89.30;99761.16;6700198;26;35124;-82
2021/12/07 10:36:08;;;;;;;;;;;;;;;0.83;90.41;99759.03;6700673;26;35075;-83
2021/12/07 10:39:15;;;;;;;;;;;;;;;0.98;90.24;99759.03;6681057;26;34601;-82
2021/12/07 10:42:25;;;;;;;;;;;;;;;1.01;90.55;99754.50;6701631;26;34967;-82
2021/12/07 10:45:35;;;;;;;;;;;;;;;1.19;89.82;99752.50;6699535;26;34896;-82
2021/12/07 10:48:38;;;;;;;;;;;;;;;1.19;88.89;99757.72;6699510;26;34652;-82
2021/12/07 10:51:42;;;;;;;;;;;;;;;1.33;88.56;99758.63;6699455;26;35049;-82
2021/12/07 10:54:59;;;;;;;;;;;;;;;1.28;88.35;99758.09;6700844;26;34580;-82
2021/12/07 10:58:04;;;;;;;;;;;;;;;1.30;88.05;99762.28;6702798;26;35839;-82
2021/12/07 11:01:08;;;;;;;;;;;;;;;1.37;87.85;99752.31;6701303;26;34501;-82
2021/12/07 11:04:26;;;;;;;;;;;;;;;1.46;87.60;99749.13;6701227;26;34940;-82
2021/12/07 11:07:29;;;;;;;;;;;;;;;1.47;87.54;99750.78;6703007;26;34576;-82
2021/12/07 11:10:33;;;;;;;;;;;;;;;1.49;87.82;99748.94;6703993;26;34848;-81
2021/12/07 11:13:38;;;;;;;;;;;;;;;1.45;87.12;99751.84;6704535;26;34864;-82
2021/12/07 11:16:42;;;;;;;;;;;;;;;1.42;87.46;99752.84;6702145;26;34690;-82
2021/12/07 11:19:45;;;;;;;;;;;;;;;1.39;88.22;99748.66;6702062;26;35078;-82
2021/12/07 11:22:50;;;;;;;;;;;;;;;1.38;87.69;99751.38;6700168;26;35022;-82
2021/12/07 11:29:39;;;;;;;;;;;;;;;1.37;87.73;99749.69;6700887;26;35129;-83
2021/12/07 11:29:42;;;;;;;;;;;;;;;1.38;87.61;99748.78;6701735;26;34523;-83
2021/12/07 11:32:49;;;;;;;;;;;;;;;1.30;88.37;99749.25;6702063;26;34566;-84
2021/12/07 11:35:51;;;;;;;;;;;;;;;1.31;88.47;99744.84;6703020;26;34785;-84
2021/12/07 11:38:55;;;;;;;;;;;;;;;1.31;88.90;99737.88;6701498;26;34950;-82
2021/12/07 11:42:06;;;;;;;;;;;;;;;1.22;89.10;99747.09;6703211;26;34886;-82
2021/12/07 11:45:18;;;;;;;;;;;;;;;1.23;89.85;99745.34;6702117;26;34771;-82
2021/12/07 11:48:20;;;;;;;;;;;;;;;1.17;90.14;99740.50;6702710;26;34393;-82
2021/12/07 11:51:23;;;;;;;;;;;;;;;1.22;89.96;99747.09;6700069;26;34662;-82
2021/12/07 11:54:28;;;;;;;;;;;;;;;1.00;91.64;99747.59;6701019;26;34869;-83
2021/12/07 11:57:31;;;;;;;;;;;;;;;0.95;91.25;99748.81;6702509;26;35218;-81
2021/12/07 12:00:38;;;;;;;;;;;;;;;1.01;90.89;99746.69;6703126;26;35895;-82
2021/12/07 12:03:41;;;;;;;;;;;;;;;0.71;93.64;99759.78;6701221;26;34839;-83
2021/12/07 12:06:47;;;;;;;;;;;;;;;0.90;91.84;99754.31;6699899;26;34707;-82
2021/12/07 12:09:52;;;;;;;;;;;;;;;0.66;93.24;99753.97;6701239;26;34858;-82
2021/12/07 12:13:13;;;;;;;;;;;;;;;0.76;93.37;99750.75;6700007;26;34722;-81
2021/12/07 12:16:34;;;;;;;;;;;;;;;0.66;93.57;99738.38;6700919;26;34813;-82
2021/12/07 12:19:55;;;;;;;;;;;;;;;0.66;93.57;99743.56;6701582;26;34792;-82
2021/12/07 12:23:16;;;;;;;;;;;;;;;0.80;92.68;99743.59;6700265;26;35313;-82
2021/12/07 12:26:20;;;;;;;;;;;;;;;0.95;91.98;99738.38;6700725;26;35739;-82
2021/12/07 12:29:30;;;;;;;;;;;;;;;0.85;92.41;99741.53;6700561;26;35305;-82
2021/12/07 12:32:35;;;;;;;;;;;;;;;0.72;92.25;99738.00;6701242;26;34640;-82
2021/12/07 12:35:52;;;;;;;;;;;;;;;0.95;93.07;99734.00;6701128;26;34544;-83
2021/12/07 12:38:56;;;;;;;;;;;;;;;0.93;92.97;99741.06;6701173;26;35329;-82
2021/12/07 12:41:59;;;;;;;;;;;;;;;0.81;92.44;99747.03;6700332;26;35167;-82
2021/12/07 12:45:11;;;;;;;;;;;;;;;0.94;92.43;99754.94;6701143;26;34879;-82
2021/12/07 12:48:19;;;;;;;;;;;;;;;0.77;93.51;99762.00;6700376;26;34917;-82
2021/12/07 12:51:23;;;;;;;;;;;;;;;0.92;93.20;99755.03;6700358;26;35363;-82
2021/12/07 12:54:26;;;;;;;;;;;;;;;0.96;92.74;99760.91;6701210;26;34987;-83
2021/12/07 12:57:28;;;;;;;;;;;;;;;0.99;92.52;99753.75;6701852;26;35184;-83
2021/12/07 13:00:50;;;;;;;;;;;;;;;0.87;93.31;99768.31;6701062;26;34781;-82
2021/12/07 13:03:57;;;;;;;;;;;;;;;0.76;93.92;99757.72;6702680;26;33631;-82
2021/12/07 13:10:14;;;;;;;;;;;;;;;0.64;95.07;99771.47;6701660;26;35428;-82
2021/12/07 13:13:25;;;;;;;;;;;;;;;0.66;94.95;99770.47;6700418;26;34843;-82
2021/12/07 13:16:28;;;;;;;;;;;;;;;0.56;95.44;99769.31;6702671;26;34576;-82
2021/12/07 13:19:54;;;;;;;;;;;;;;;0.54;95.69;99771.19;6700963;26;34615;-82
2021/12/07 13:23:02;;;;;;;;;;;;;;;0.48;96.44;99767.16;6702103;26;34738;-83
2021/12/07 13:26:05;;;;;;;;;;;;;;;0.44;96.88;99760.47;6701448;26;34848;-82
2021/12/07 13:29:10;;;;;;;;;;;;;;;0.39;97.25;99757.31;6700067;26;35598;-82
2021/12/07 13:32:13;;;;;;;;;;;;;;;0.39;97.40;99765.94;6700218;26;34507;-82
2021/12/07 13:35:28;;;;;;;;;;;;;;;0.40;97.73;99753.75;6699574;26;34613;-82
2021/12/07 13:38:31;;;;;;;;;;;;;;;0.34;98.34;99760.16;6703604;26;34674;-82
2021/12/07 13:41:34;;;;;;;;;;;;;;;0.48;97.52;99755.91;6700864;26;34645;-81
2021/12/07 13:44:39;;;;;;;;;;;;;;;0.51;97.25;99756.56;6704788;26;35329;-82
2021/12/07 13:47:43;;;;;;;;;;;;;;;0.46;97.90;99761.22;6704645;26;35702;-82
2021/12/07 13:50:46;;;;;;;;;;;;;;;0.48;98.32;99771.53;6699551;26;34705;-82
2021/12/07 13:53:51;;;;;;;;;;;;;;;0.44;97.99;99783.88;6700593;26;34926;-82
2021/12/07 13:56:54;;;;;;;;;;;;;;;0.42;98.31;99777.91;6699444;26;34547;-82
2021/12/07 13:59:58;;;;;;;;;;;;;;;0.45;98.59;99785.56;6700095;26;34778;-82
2021/12/07 14:03:05;;;;;;;;;;;;;;;0.34;99.02;99782.75;6700032;26;34972;-82
2021/12/07 14:06:08;;;;;;;;;;;;;;;0.41;98.84;99794.47;6700523;26;34704;-82
2021/12/07 14:09:10;;;;;;;;;;;;;;;0.44;98.87;99791.69;6701673;26;34352;-82
2021/12/07 14:12:20;;;;;;;;;;;;;;;0.37;99.34;99795.59;6701220;26;34802;-82
2021/12/07 14:15:27;;;;;;;;;;;;;;;0.33;99.90;99800.12;6699889;26;34563;-82
2021/12/07 14:18:35;;;;;;;;;;;;;;;0.31;99.83;99799.38;6700319;26;35815;-82
2021/12/07 14:21:43;;;;;;;;;;;;;;;0.17;100.00;99800.12;6700211;26;34897;-82
2021/12/07 14:24:51;;;;;;;;;;;;;;;0.27;100.00;99801.31;6699917;26;35079;-82
2021/12/07 14:27:55;;;;;;;;;;;;;;;0.24;100.00;99803.22;6699766;26;35733;-82
2021/12/07 14:31:05;;;;;;;;;;;;;;;0.23;100.00;99804.16;6700135;26;34927;-82
2021/12/07 14:34:34;;;;;;;;;;;;;;;0.10;100.00;99811.81;6699989;26;35409;-82
2021/12/07 14:37:37;;;;;;;;;;;;;;;0.04;100.00;99812.19;6697359;26;34578;-82
2021/12/07 14:40:42;;;;;;;;;;;;;;;0.08;100.00;99817.13;6702600;26;35511;-84
2021/12/07 14:43:45;;;;;;;;;;;;;;;0.00;100.00;99811.53;6702986;26;35791;-82
2021/12/07 14:46:50;;;;;;;;;;;;;;;-0.07;100.00;99811.03;6699832;26;34500;-82
2021/12/07 14:50:00;;;;;;;;;;;;;;;-0.15;100.00;99810.59;6700410;26;34307;-82
2021/12/07 14:53:02;;;;;;;;;;;;;;;-0.17;100.00;99817.66;6701460;26;34433;-81
2021/12/07 14:56:12;;;;;;;;;;;;;;;-0.28;100.00;99820.00;6700028;26;34401;-83
2021/12/07 14:59:17;;;;;;;;;;;;;;;-0.24;100.00;99818.91;6699388;26;34698;-82
2021/12/07 15:02:19;;;;;;;;;;;;;;;-0.24;100.00;99821.50;6692520;26;235046;-83
2021/12/07 15:05:22;;;;;;;;;;;;;;;-0.19;100.00;99829.91;6699716;26;35098;-82
2021/12/07 15:08:25;;;;;;;;;;;;;;;-0.18;100.00;99835.00;6702169;26;35264;-82
2021/12/07 15:11:28;;;;;;;;;;;;;;;-0.28;100.00;99825.22;6703753;26;34550;-82
2021/12/07 15:14:33;;;;;;;;;;;;;;;-0.28;100.00;99827.81;6701751;26;35287;-82
2021/12/07 15:17:36;;;;;;;;;;;;;;;-0.22;100.00;99827.47;6701618;26;35024;-82
2021/12/07 15:20:41;;;;;;;;;;;;;;;-0.21;100.00;99831.75;6701809;26;34800;-82
2021/12/07 15:23:47;;;;;;;;;;;;;;;-0.34;100.00;99837.59;6702089;26;34274;-82
2021/12/07 15:26:54;;;;;;;;;;;;;;;-0.42;100.00;99839.78;6701006;26;35232;-82
2021/12/07 15:29:56;;;;;;;;;;;;;;;-0.52;100.00;99828.19;6701329;26;34897;-82
2021/12/07 15:33:01;;;;;;;;;;;;;;;-0.60;100.00;99830.34;6701352;26;35448;-82
2021/12/07 15:36:14;;;;;;;;;;;;;;;-0.63;100.00;99842.59;6702010;26;34320;-82
2021/12/07 15:39:19;;;;;;;;;;;;;;;-0.57;100.00;99833.66;6703890;26;34352;-82
2021/12/07 15:42:23;;;;;;;;;;;;;;;-0.55;100.00;99854.34;6702522;26;34361;-82
2021/12/07 15:45:26;;;;;;;;;;;;;;;-0.68;100.00;99852.38;6703128;26;34438;-83
2021/12/07 15:48:31;;;;;;;;;;;;;;;-0.73;100.00;99851.78;6702368;26;34722;-82
2021/12/07 15:51:34;;;;;;;;;;;;;;;-0.80;100.00;99847.81;6704118;26;35066;-82
2021/12/07 15:55:23;;;;;;;;;;;;;;;-0.89;100.00;99850.91;6703631;26;34913;-83
2021/12/07 15:58:26;;;;;;;;;;;;;;;-0.82;100.00;99850.50;6596841;27;34245;-83
2021/12/07 16:01:36;;;;;;;;;;;;;;;-0.86;100.00;99845.56;6617211;27;34619;-83
2021/12/07 16:04:39;;;;;;;;;;;;;;;-0.80;100.00;99840.87;6618276;27;34506;-83
2021/12/07 16:07:43;;;;;;;;;;;;;;;-0.80;100.00;99845.22;6618530;27;34386;-83
2021/12/07 16:10:47;;;;;;;;;;;;;;;-0.99;100.00;99841.00;6616741;27;34434;-83
2021/12/07 16:13:53;;;;;;;;;;;;;;;-1.18;100.00;99845.44;6616426;27;35052;-83
2021/12/07 16:16:56;;;;;;;;;;;;;;;-1.12;100.00;99842.53;6618853;27;34685;-83
2021/12/07 16:19:58;;;;;;;;;;;;;;;-1.16;100.00;99843.59;6618075;27;35209;-83
2021/12/07 16:23:03;;;;;;;;;;;;;;;-1.14;100.00;99852.16;6616922;27;35242;-83
2021/12/07 16:26:08;;;;;;;;;;;;;;;-1.01;100.00;99847.16;6615324;27;35082;-83
2021/12/07 16:29:13;;;;;;;;;;;;;;;-1.05;100.00;99851.69;6666760;26;34458;-83
2021/12/07 16:32:21;;;;;;;;;;;;;;;-0.91;100.00;99852.75;6701909;26;35388;-83
2021/12/07 16:35:24;;;;;;;;;;;;;;;-0.99;100.00;99850.53;6701314;26;35972;-83
2021/12/07 16:38:28;;;;;;;;;;;;;;;-1.03;100.00;99847.25;6699973;26;34697;-82
2021/12/07 16:41:32;;;;;;;;;;;;;;;-1.04;100.00;99850.75;6700142;26;35986;-82
2021/12/07 16:44:35;;;;;;;;;;;;;;;-1.13;100.00;99849.50;6700878;26;35256;-83
2021/12/07 16:47:41;;;;;;;;;;;;;;;-0.95;100.00;99846.88;6701032;26;34325;-83
2021/12/07 16:50:46;;;;;;;;;;;;;;;-0.98;100.00;99852.22;6699538;26;35223;-83
2021/12/07 16:53:49;;;;;;;;;;;;;;;-1.19;100.00;99854.16;6702838;26;34572;-83
2021/12/07 16:56:54;;;;;;;;;;;;;;;-1.23;100.00;99848.25;6700773;26;34872;-82
2021/12/07 16:59:56;;;;;;;;;;;;;;;-1.22;100.00;99862.09;6700841;26;34544;-82
2021/12/07 17:03:00;;;;;;;;;;;;;;;-1.00;100.00;99865.28;6701966;26;34841;-82
2021/12/07 17:06:05;;;;;;;;;;;;;;;-0.98;100.00;99870.38;6701395;26;34995;-82
2021/12/07 17:09:07;;;;;;;;;;;;;;;-0.93;100.00;99864.03;6700275;26;34507;-83
2021/12/07 17:12:10;;;;;;;;;;;;;;;-0.90;100.00;99859.62;6701905;26;34514;-83
2021/12/07 17:15:13;;;;;;;;;;;;;;;-1.05;100.00;99867.25;6700941;26;35730;-82
2021/12/07 17:18:16;;;;;;;;;;;;;;;-1.02;100.00;99859.31;6703159;26;34489;-82
2021/12/07 17:21:21;;;;;;;;;;;;;;;-0.97;100.00;99854.75;6700079;26;35094;-82
2021/12/07 17:24:24;;;;;;;;;;;;;;;-1.00;100.00;99854.03;6700098;26;34884;-83
2021/12/07 17:27:26;;;;;;;;;;;;;;;-1.13;100.00;99856.44;6700057;26;34615;-83
2021/12/07 17:30:32;;;;;;;;;;;;;;;-1.21;100.00;99850.78;6701472;26;34533;-84
2021/12/07 17:33:34;;;;;;;;;;;;;;;-1.31;100.00;99856.44;6701463;26;34871;-82
2021/12/07 17:36:38;;;;;;;;;;;;;;;-1.05;100.00;99859.47;6700726;26;34972;-83
2021/12/07 17:39:48;;;;;;;;;;;;;;;-1.10;100.00;99851.09;6700835;26;35886;-83
2021/12/07 17:42:52;;;;;;;;;;;;;;;-1.03;100.00;99857.63;6700732;26;35600;-83